createdAt,value
2022-12-11T00:04:16.173Z,17.92
2022-12-11T00:09:17.914Z,16.17
2022-12-11T00:14:19.425Z,15.80
2022-12-11T00:19:20.785Z,16.65
2022-12-11T00:24:22.148Z,17.33
2022-12-11T00:29:23.476Z,15.20
2022-12-11T00:34:24.828Z,12.82
2022-12-11T00:39:26.125Z,16.15
2022-12-11T00:44:27.460Z,16.42
2022-12-11T00:49:28.912Z,14.35
2022-12-11T00:54:30.212Z,15.38
2022-12-11T00:59:31.510Z,15.98
2022-12-11T01:04:34.957Z,14.40
2022-12-11T01:09:54.798Z,15.23
2022-12-11T01:14:56.101Z,13.55
2022-12-11T01:19:57.403Z,16.05
2022-12-11T01:24:59.164Z,14.75
2022-12-11T01:30:00.504Z,16.05
2022-12-11T01:35:05.901Z,16.80
2022-12-11T01:40:08.092Z,16.10
2022-12-11T01:45:12.405Z,15.93
2022-12-11T01:50:14.058Z,16.65
2022-12-11T01:55:15.665Z,16.83
2022-12-11T02:00:17.077Z,16.27
2022-12-11T02:05:18.524Z,17.13
2022-12-11T02:10:19.892Z,15.93
2022-12-11T02:15:35.995Z,16.10
2022-12-11T02:20:38.953Z,16.35
2022-12-11T02:25:46.986Z,14.80
2022-12-11T02:30:51.251Z,16.52
2022-12-11T02:35:52.855Z,15.85
2022-12-11T02:40:55.859Z,16.05
2022-12-11T02:45:57.814Z,14.68
2022-12-11T02:50:59.995Z,14.48
2022-12-11T02:56:12.335Z,14.07
2022-12-11T03:01:13.777Z,14.60
2022-12-11T03:06:18.219Z,14.05
2022-12-11T03:11:19.554Z,16.45
2022-12-11T03:16:27.115Z,14.32
2022-12-11T03:21:33.427Z,16.08
2022-12-11T03:26:37.966Z,12.85
2022-12-11T03:31:42.091Z,12.73
2022-12-11T03:36:43.714Z,11.45
2022-12-11T03:41:46.115Z,13.15
2022-12-11T03:46:48.188Z,13.05
2022-12-11T03:51:51.317Z,12.52
2022-12-11T03:56:55.393Z,12.80
2022-12-11T04:01:56.794Z,13.25
2022-12-11T04:06:58.169Z,14.43
2022-12-11T04:11:59.492Z,12.77
2022-12-11T04:17:00.983Z,10.77
2022-12-11T04:22:21.041Z,11.88
2022-12-11T04:27:40.955Z,11.07
2022-12-11T04:32:42.360Z,12.00
2022-12-11T04:37:43.775Z,12.80
2022-12-11T04:42:45.173Z,11.52
2022-12-11T04:47:46.491Z,13.90
2022-12-11T04:52:47.813Z,14.05
2022-12-11T04:57:49.125Z,11.55
2022-12-11T05:02:50.559Z,12.60
2022-12-11T05:07:51.947Z,11.48
2022-12-11T05:12:53.305Z,12.63
2022-12-11T05:17:54.686Z,11.90
2022-12-11T05:22:56.014Z,11.90
2022-12-11T05:27:57.572Z,12.75
2022-12-11T05:32:58.905Z,12.93
2022-12-11T05:38:01.416Z,11.82
2022-12-11T05:43:02.717Z,11.85
2022-12-11T05:48:04.199Z,12.68
2022-12-11T05:53:05.499Z,11.35
2022-12-11T05:58:06.831Z,12.48
2022-12-11T06:03:08.315Z,12.52
2022-12-11T06:08:09.761Z,11.30
2022-12-11T06:13:11.141Z,12.88
2022-12-11T06:18:12.688Z,11.40
2022-12-11T06:23:14.017Z,11.05
2022-12-11T06:28:15.324Z,11.85
2022-12-11T06:33:16.643Z,10.75
2022-12-11T06:38:18.062Z,11.32
2022-12-11T06:43:19.351Z,11.05
2022-12-11T06:48:20.660Z,11.38
2022-12-11T06:53:21.959Z,10.93
2022-12-11T06:58:23.458Z,11.52
2022-12-11T07:03:24.809Z,11.45
2022-12-11T07:08:27.314Z,11.93
2022-12-11T07:13:28.799Z,11.38
2022-12-11T07:18:31.561Z,11.05
2022-12-11T07:23:33.614Z,11.63
2022-12-11T07:28:35.101Z,12.00
2022-12-11T07:33:36.851Z,10.00
2022-12-11T07:38:38.485Z,8.90
2022-12-11T07:43:40.243Z,9.40
2022-12-11T07:48:43.828Z,8.45
2022-12-11T07:53:45.852Z,6.75
2022-12-11T07:58:47.346Z,7.53
2022-12-11T08:03:48.711Z,7.35
2022-12-11T08:08:50.030Z,7.85
2022-12-11T08:13:51.386Z,7.40
2022-12-11T08:18:52.975Z,8.35
2022-12-11T08:23:54.402Z,6.75
2022-12-11T08:28:55.990Z,6.53
2022-12-11T08:33:57.794Z,6.57
2022-12-11T08:38:59.166Z,6.55
2022-12-11T08:44:01.646Z,6.13
2022-12-11T08:49:03.073Z,6.20
2022-12-11T08:54:04.407Z,6.95
2022-12-11T08:59:06.182Z,6.10
2022-12-11T09:04:07.568Z,7.13
2022-12-11T09:09:08.856Z,6.35
2022-12-11T09:14:10.245Z,6.35
2022-12-11T09:19:13.932Z,6.18
2022-12-11T09:24:15.480Z,7.50
2022-12-11T09:29:16.860Z,7.50
2022-12-11T09:34:18.163Z,7.85
2022-12-11T09:39:19.527Z,8.27
2022-12-11T09:44:25.491Z,7.55
2022-12-11T09:49:26.838Z,8.30
2022-12-11T09:54:28.268Z,8.00
2022-12-11T09:59:37.342Z,7.40
2022-12-11T10:04:57.070Z,7.43
2022-12-11T10:09:58.375Z,8.20
2022-12-11T10:15:19.595Z,8.40
2022-12-11T10:20:36.505Z,8.65
2022-12-11T10:25:40.880Z,8.95
2022-12-11T10:30:50.906Z,8.05
2022-12-11T10:35:53.812Z,8.35
2022-12-11T10:40:57.139Z,8.02
2022-12-11T10:45:58.741Z,8.43
2022-12-11T10:51:02.586Z,8.35
2022-12-11T10:56:04.198Z,7.90
2022-12-11T11:01:05.586Z,11.73
2022-12-11T11:06:14.748Z,9.50
2022-12-11T11:16:18.672Z,9.10
2022-12-11T11:21:21.537Z,9.98
2022-12-11T11:26:23.325Z,8.10
2022-12-11T11:31:33.532Z,9.43
2022-12-11T11:41:54.903Z,9.52
2022-12-11T11:47:00.870Z,7.80
2022-12-11T11:52:12.860Z,9.25
2022-12-11T11:57:17.383Z,8.00
2022-12-11T12:02:19.523Z,9.32
2022-12-11T12:07:27.587Z,9.23
2022-12-11T12:12:33.795Z,8.80
2022-12-11T12:17:41.693Z,8.70
2022-12-11T12:22:48.939Z,8.98
2022-12-11T12:28:00.005Z,8.73
2022-12-11T12:33:14.299Z,8.48
2022-12-11T12:38:23.211Z,8.52
2022-12-11T12:43:43.210Z,7.50
2022-12-11T12:48:44.957Z,8.95
2022-12-11T12:54:12.676Z,8.65
2022-12-11T12:59:21.691Z,8.13
2022-12-11T13:04:54.588Z,8.48
2022-12-11T13:09:56.886Z,7.45
2022-12-11T13:14:58.222Z,8.05
2022-12-11T13:20:14.254Z,9.05
2022-12-11T13:25:24.748Z,8.05
2022-12-11T13:30:26.558Z,7.25
2022-12-11T13:35:28.383Z,7.03
2022-12-11T13:40:33.830Z,8.18
2022-12-11T13:45:46.468Z,7.38
2022-12-11T13:50:48.268Z,5.50
2022-12-11T13:56:00.054Z,6.18
2022-12-11T14:01:01.430Z,4.85
2022-12-11T14:06:03.655Z,6.07
2022-12-11T14:11:05.398Z,4.97
2022-12-11T14:16:07.040Z,5.93
2022-12-11T14:21:18.122Z,5.32
2022-12-11T14:26:21.166Z,6.45
2022-12-11T14:31:33.931Z,6.18
2022-12-11T14:36:35.581Z,6.28
2022-12-11T14:41:42.603Z,6.40
2022-12-11T14:46:46.213Z,5.80
2022-12-11T14:51:48.088Z,6.30
2022-12-11T14:56:49.472Z,6.85
2022-12-11T15:01:57.666Z,6.40
2022-12-11T15:06:59.660Z,7.30
2022-12-11T15:12:08.515Z,6.68
2022-12-11T15:17:13.514Z,6.57
2022-12-11T15:22:15.776Z,6.47
2022-12-11T15:27:20.062Z,7.03
2022-12-11T15:32:21.713Z,6.78
2022-12-11T15:37:28.101Z,6.97
2022-12-11T15:42:34.298Z,6.55
2022-12-11T15:47:35.599Z,6.95
2022-12-11T15:52:37.002Z,7.07
2022-12-11T15:57:40.065Z,7.18
2022-12-11T16:02:41.395Z,6.15
2022-12-11T16:07:42.780Z,7.38
2022-12-11T16:12:44.777Z,6.97
2022-12-11T16:17:46.095Z,6.95
2022-12-11T16:22:47.428Z,8.55
2022-12-11T16:27:48.838Z,7.32
2022-12-11T16:32:50.949Z,6.43
2022-12-11T16:37:52.848Z,6.55
2022-12-11T16:42:54.177Z,7.13
2022-12-11T16:47:55.519Z,7.28
2022-12-11T16:52:56.992Z,6.45
2022-12-11T16:57:58.349Z,6.72
2022-12-11T17:02:59.686Z,7.85
2022-12-11T17:08:01.186Z,6.95
2022-12-11T17:13:02.523Z,7.15
2022-12-11T17:18:03.830Z,8.63
2022-12-11T17:23:05.130Z,7.55
2022-12-11T17:28:06.727Z,7.80
2022-12-11T17:33:08.079Z,8.15
2022-12-11T17:38:09.451Z,7.03
2022-12-11T17:43:11.226Z,7.60
2022-12-11T17:48:12.886Z,7.68
2022-12-11T17:53:15.012Z,7.22
2022-12-11T17:58:18.380Z,7.82
2022-12-11T18:03:20.229Z,7.53
2022-12-11T18:08:23.332Z,6.30
2022-12-11T18:13:24.918Z,8.57
2022-12-11T18:18:26.281Z,7.80
2022-12-11T18:23:27.854Z,8.63
2022-12-11T18:28:31.647Z,9.38
2022-12-11T18:33:35.213Z,9.45
2022-12-11T18:38:36.840Z,8.63
2022-12-11T18:43:38.185Z,9.60
2022-12-11T18:48:40.210Z,8.40
2022-12-11T18:53:41.616Z,7.97
2022-12-11T18:58:43.515Z,9.88
2022-12-11T19:03:45.262Z,9.27
2022-12-11T19:08:46.631Z,9.10
2022-12-11T19:13:48.342Z,9.00
2022-12-11T19:18:50.124Z,9.13
2022-12-11T19:23:51.568Z,8.57
2022-12-11T19:28:53.384Z,8.35
2022-12-11T19:33:55.179Z,8.90
2022-12-11T19:39:01.425Z,9.48
2022-12-11T19:44:03.815Z,9.50
2022-12-11T19:49:05.596Z,8.82
2022-12-11T19:54:07.757Z,9.32
2022-12-11T19:59:10.656Z,9.95
2022-12-11T20:04:13.490Z,9.80
2022-12-11T20:09:15.669Z,9.13
2022-12-11T20:14:19.241Z,10.77
2022-12-11T20:19:20.798Z,8.75
2022-12-11T20:24:22.136Z,9.68
2022-12-11T20:29:23.769Z,11.07
2022-12-11T20:34:25.531Z,10.70
2022-12-11T20:39:26.986Z,10.88
2022-12-11T20:44:28.281Z,9.75
2022-12-11T20:49:29.601Z,10.45
2022-12-11T20:54:30.992Z,10.85
2022-12-11T20:59:32.356Z,9.32
2022-12-11T21:04:34.042Z,9.40
2022-12-11T21:09:36.020Z,9.32
2022-12-11T21:14:38.727Z,11.32
2022-12-11T21:19:40.127Z,9.23
2022-12-11T21:24:41.764Z,10.00
2022-12-11T21:29:43.186Z,11.20
2022-12-11T21:34:44.533Z,11.25
2022-12-11T21:39:45.906Z,11.52
2022-12-11T21:50:08.506Z,9.25
2022-12-11T21:55:11.341Z,12.02
2022-12-11T22:00:13.147Z,10.57
2022-12-11T22:05:14.635Z,10.93
2022-12-11T22:10:16.153Z,10.75
2022-12-11T22:15:17.458Z,8.77
2022-12-11T22:20:18.790Z,11.73
2022-12-11T22:25:20.099Z,12.00
2022-12-11T22:30:21.390Z,10.73
2022-12-11T22:35:26.979Z,10.77
2022-12-11T22:40:29.540Z,11.48
2022-12-11T22:45:30.882Z,13.05
2022-12-11T22:50:32.370Z,11.88
2022-12-11T22:55:34.029Z,11.65
2022-12-11T23:00:35.361Z,11.15
2022-12-11T23:05:39.091Z,11.00
2022-12-11T23:10:40.946Z,12.77
2022-12-11T23:15:42.245Z,10.25
2022-12-11T23:20:43.562Z,12.20
2022-12-11T23:25:44.861Z,10.77
2022-12-11T23:30:46.171Z,13.45
2022-12-11T23:35:47.495Z,13.95
2022-12-11T23:40:48.854Z,14.05
2022-12-11T23:45:50.289Z,11.75
2022-12-11T23:50:51.802Z,14.02
2022-12-11T23:55:53.114Z,12.30
